createdAt,value
2016-12-19T00:01:02.832Z,20.18
2016-12-19T00:02:11.541Z,20.18
2016-12-19T00:03:20.525Z,20.28
2016-12-19T00:04:29.986Z,20.26
2016-12-19T00:05:39.016Z,20.17
2016-12-19T00:06:48.069Z,20.23
2016-12-19T00:07:57.681Z,20.2
2016-12-19T00:09:06.376Z,20.28
2016-12-19T00:10:15.820Z,20.29
2016-12-19T00:11:25.130Z,20.23
2016-12-19T00:12:34.124Z,20.26
2016-12-19T00:13:43.111Z,20.28
2016-12-19T00:14:52.412Z,20.23
2016-12-19T00:16:01.258Z,20.29
2016-12-19T00:17:10.255Z,20.2
2016-12-19T00:18:19.254Z,20.17
2016-12-19T00:19:27.930Z,20.28
2016-12-19T00:20:37.228Z,20.2
2016-12-19T00:21:46.258Z,20.28
2016-12-19T00:22:55.872Z,20.26
2016-12-19T00:24:04.547Z,20.17
2016-12-19T00:25:13.536Z,20.2
2016-12-19T00:26:22.537Z,20.26
2016-12-19T00:27:31.891Z,20.2
2016-12-19T00:28:40.634Z,20.17
2016-12-19T00:29:49.315Z,20.17
2016-12-19T00:30:57.995Z,20.33
2016-12-19T00:32:06.987Z,20.2
2016-12-19T00:33:15.700Z,20.23
2016-12-19T00:34:24.996Z,20.18
2016-12-19T00:35:33.675Z,20.17
2016-12-19T00:36:42.357Z,20.2
2016-12-19T00:37:51.349Z,20.21
2016-12-19T00:39:00.758Z,20.16
2016-12-19T00:40:09.454Z,20.2
2016-12-19T00:41:19.366Z,20.2
2016-12-19T00:42:29.283Z,20.18
2016-12-19T00:43:38.593Z,20.24
2016-12-19T00:44:48.045Z,20.26
2016-12-19T00:45:57.037Z,20.26
2016-12-19T00:47:06.647Z,20.16
2016-12-19T00:48:16.267Z,20.17
2016-12-19T00:49:25.280Z,20.18
2016-12-19T00:50:34.580Z,20.2
2016-12-19T00:51:43.265Z,20.16
2016-12-19T00:52:52.254Z,20.17
2016-12-19T00:54:01.876Z,20.28
2016-12-19T00:55:11.185Z,20.16
2016-12-19T00:56:19.902Z,20.2
2016-12-19T00:57:28.587Z,20.2
2016-12-19T00:58:37.893Z,20.26
2016-12-19T00:59:47.196Z,20.14
2016-12-19T01:00:55.899Z,20.16
2016-12-19T01:02:05.294Z,20.17
2016-12-19T01:03:14.599Z,20.18
2016-12-19T01:04:23.592Z,20.2
2016-12-19T01:05:32.926Z,20.18
2016-12-19T01:06:41.915Z,20.21
2016-12-19T01:07:50.599Z,20.33
2016-12-19T01:08:59.600Z,20.28
2016-12-19T01:10:08.598Z,20.14
2016-12-19T01:11:17.595Z,20.18
2016-12-19T01:12:26.271Z,20.17
2016-12-19T01:13:35.575Z,20.16
2016-12-19T01:14:44.575Z,20.13
2016-12-19T01:15:53.574Z,20.24
2016-12-19T01:17:03.184Z,20.28
2016-12-19T01:18:12.186Z,20.2
2016-12-19T01:19:21.199Z,20.23
2016-12-19T01:20:30.225Z,20.17
2016-12-19T01:21:39.216Z,20.2
2016-12-19T01:22:48.215Z,20.2
2016-12-19T01:23:57.208Z,20.23
2016-12-19T01:25:06.822Z,20.2
2016-12-19T01:26:15.817Z,20.21
2016-12-19T01:27:24.510Z,20.16
2016-12-19T01:28:33.212Z,20.16
2016-12-19T01:29:42.204Z,20.21
2016-12-19T01:30:51.499Z,20.18
2016-12-19T01:32:00.489Z,20.18
2016-12-19T01:33:09.797Z,20.2
2016-12-19T01:34:18.795Z,20.16
2016-12-19T01:35:27.778Z,20.21
2016-12-19T01:36:36.649Z,20.17
2016-12-19T01:37:45.941Z,20.21
2016-12-19T01:38:54.936Z,20.24
2016-12-19T01:40:03.931Z,20.2
2016-12-19T01:41:12.619Z,20.18
2016-12-19T01:42:22.246Z,20.18
2016-12-19T01:43:31.541Z,20.16
2016-12-19T01:44:40.251Z,20.2
2016-12-19T01:45:49.587Z,20.2
2016-12-19T01:46:58.266Z,20.17
2016-12-19T01:48:06.955Z,20.17
2016-12-19T01:49:15.950Z,20.21
2016-12-19T01:50:24.946Z,20.26
2016-12-19T01:51:33.939Z,20.2
2016-12-19T01:52:43.539Z,20.2
2016-12-19T01:53:52.883Z,20.16
2016-12-19T01:55:02.223Z,20.23
2016-12-19T01:56:11.215Z,20.18
2016-12-19T01:57:19.900Z,20.23
2016-12-19T01:58:28.886Z,20.21
2016-12-19T01:59:38.560Z,20.16
2016-12-19T02:00:47.572Z,20.18
2016-12-19T02:01:56.567Z,20.2
2016-12-19T02:03:05.558Z,20.21
2016-12-19T02:04:14.283Z,20.2
2016-12-19T02:05:23.290Z,20.16
2016-12-19T02:06:32.001Z,20.23
2016-12-19T02:07:40.999Z,20.18
2016-12-19T02:08:50.333Z,20.17
2016-12-19T02:09:59.016Z,20.11
2016-12-19T02:11:08.010Z,20.23
2016-12-19T02:12:16.697Z,20.18
2016-12-19T02:13:25.380Z,20.24
2016-12-19T02:14:34.990Z,20.24
2016-12-19T02:15:44.004Z,20.21
2016-12-19T02:16:52.843Z,20.21
2016-12-19T02:18:01.523Z,20.2
2016-12-19T02:19:10.212Z,20.21
2016-12-19T02:20:18.897Z,20.2
2016-12-19T02:21:28.204Z,20.14
2016-12-19T02:22:37.550Z,20.23
2016-12-19T02:23:46.545Z,20.21
2016-12-19T02:24:55.527Z,20.21
2016-12-19T02:26:04.534Z,20.26
2016-12-19T02:27:13.518Z,20.23
2016-12-19T02:28:23.129Z,20.21
2016-12-19T02:29:32.118Z,20.17
2016-12-19T02:30:40.806Z,20.21
2016-12-19T02:31:50.108Z,20.17
2016-12-19T02:32:58.795Z,20.17
2016-12-19T02:34:07.791Z,20.21
2016-12-19T02:35:16.476Z,20.13
2016-12-19T02:36:25.520Z,20.18
2016-12-19T02:37:34.525Z,20.21
2016-12-19T02:38:43.211Z,20.11
2016-12-19T02:39:52.203Z,20.2
2016-12-19T02:41:00.895Z,20.21
2016-12-19T02:42:10.220Z,20.21
2016-12-19T02:43:19.208Z,20.17
2016-12-19T02:44:28.199Z,20.06
2016-12-19T02:45:37.200Z,20.13
2016-12-19T02:46:46.207Z,20.1
2016-12-19T02:47:55.213Z,20.2
2016-12-19T02:49:04.831Z,20.14
2016-12-19T02:50:13.516Z,20.21
2016-12-19T02:51:22.917Z,20.21
2016-12-19T02:52:31.627Z,20.17
2016-12-19T02:53:40.325Z,20.1
2016-12-19T02:54:49.625Z,20.11
2016-12-19T02:55:58.304Z,20.13
2016-12-19T02:57:07.002Z,20.14
2016-12-19T02:58:16.291Z,20.13
2016-12-19T02:59:25.892Z,20.11
2016-12-19T03:00:34.573Z,20.1
2016-12-19T03:01:43.573Z,20.14
2016-12-19T03:02:52.619Z,20.1
2016-12-19T03:04:01.608Z,20.05
2016-12-19T03:05:10.598Z,20.1
2016-12-19T03:06:19.284Z,20.18
2016-12-19T03:07:27.971Z,20.17
2016-12-19T03:08:36.816Z,20.13
2016-12-19T03:09:45.504Z,20.03
2016-12-19T03:10:54.492Z,20.13
2016-12-19T03:12:03.173Z,20.1
2016-12-19T03:13:12.166Z,20.14
2016-12-19T03:14:21.000Z,20.17
2016-12-19T03:15:30.300Z,20.11
2016-12-19T03:16:39.288Z,20.11
2016-12-19T03:17:47.980Z,20.06
2016-12-19T03:18:56.667Z,20.08
2016-12-19T03:20:05.657Z,20.1
2016-12-19T03:21:14.654Z,20.06
2016-12-19T03:22:23.645Z,20.03
2016-12-19T03:23:32.348Z,20.14
2016-12-19T03:24:41.039Z,20.11
2016-12-19T03:25:50.443Z,20.1
2016-12-19T03:26:59.737Z,20.05
2016-12-19T03:28:08.425Z,20.11
2016-12-19T03:29:17.427Z,20.06
2016-12-19T03:30:26.125Z,20.13
2016-12-19T03:31:35.571Z,20.16
2016-12-19T03:32:44.267Z,20.05
2016-12-19T03:33:52.956Z,20.13
2016-12-19T03:35:01.958Z,20.05
2016-12-19T03:36:11.261Z,20.06
2016-12-19T03:37:20.566Z,20.01
2016-12-19T03:38:29.901Z,20.03
2016-12-19T03:39:38.898Z,20.1
2016-12-19T03:40:48.500Z,20.06
2016-12-19T03:41:57.182Z,19.99
2016-12-19T03:43:06.169Z,20.01
2016-12-19T03:44:14.856Z,20.02
2016-12-19T03:45:24.160Z,20.01
2016-12-19T03:46:33.219Z,20.08
2016-12-19T03:47:42.242Z,19.98
2016-12-19T03:48:51.641Z,20.05
2016-12-19T03:50:01.566Z,20.05
2016-12-19T03:51:10.260Z,20.01
2016-12-19T03:52:19.555Z,20.02
2016-12-19T03:53:28.906Z,20.05
2016-12-19T03:54:37.699Z,20.02
2016-12-19T03:55:46.689Z,20.06
2016-12-19T03:56:55.720Z,19.99
2016-12-19T03:58:05.020Z,20.02
2016-12-19T03:59:14.358Z,19.98
2016-12-19T04:00:23.799Z,20.05
2016-12-19T04:01:32.817Z,20.05
2016-12-19T04:02:42.117Z,20.05
2016-12-19T04:03:51.126Z,20.05
2016-12-19T04:05:00.122Z,20.06
2016-12-19T04:06:09.121Z,20.02
2016-12-19T04:07:18.421Z,20.08
2016-12-19T04:08:27.743Z,20.05
2016-12-19T04:09:36.733Z,19.99
2016-12-19T04:10:46.034Z,19.99
2016-12-19T04:11:55.023Z,20.03
2016-12-19T04:13:04.323Z,20.01
2016-12-19T04:14:13.318Z,20.01
2016-12-19T04:15:22.949Z,20.01
2016-12-19T04:16:32.559Z,19.98
2016-12-19T04:17:42.177Z,20.01
2016-12-19T04:18:51.184Z,20.01
2016-12-19T04:19:59.875Z,19.99
2016-12-19T04:21:08.866Z,19.99
2016-12-19T04:22:17.553Z,19.98
2016-12-19T04:23:26.764Z,20.02
2016-12-19T04:24:35.447Z,20.01
2016-12-19T04:25:44.768Z,19.99
2016-12-19T04:26:53.770Z,20.01
2016-12-19T04:28:02.763Z,19.98
2016-12-19T04:29:11.928Z,19.98
2016-12-19T04:30:21.221Z,20.05
2016-12-19T04:31:29.901Z,19.99
2016-12-19T04:32:38.592Z,20.01
2016-12-19T04:33:47.262Z,19.98
2016-12-19T04:34:56.353Z,19.95
2016-12-19T04:36:05.355Z,19.98
2016-12-19T04:37:14.351Z,19.95
2016-12-19T04:38:23.651Z,20.02
2016-12-19T04:39:32.371Z,19.98
2016-12-19T04:40:41.365Z,19.99
2016-12-19T04:41:50.051Z,19.99
2016-12-19T04:42:59.043Z,20.02
2016-12-19T04:44:08.036Z,19.94
2016-12-19T04:45:17.063Z,19.92
2016-12-19T04:46:26.061Z,19.92
2016-12-19T04:47:34.781Z,20.03
2016-12-19T04:48:43.466Z,19.96
2016-12-19T04:49:52.800Z,19.94
2016-12-19T04:51:01.817Z,19.92
2016-12-19T04:52:10.804Z,19.98
2016-12-19T04:53:20.115Z,19.98
2016-12-19T04:54:29.118Z,19.96
2016-12-19T04:55:38.109Z,20.01
2016-12-19T04:56:47.718Z,19.96
2016-12-19T04:57:56.883Z,19.98
2016-12-19T04:59:05.879Z,19.95
2016-12-19T05:00:15.192Z,19.95
2016-12-19T05:01:24.791Z,19.98
2016-12-19T05:02:33.797Z,19.94
2016-12-19T05:03:42.790Z,19.91
2016-12-19T05:04:51.797Z,19.95
2016-12-19T05:06:01.097Z,19.94
2016-12-19T05:07:10.458Z,19.86
2016-12-19T05:08:19.142Z,19.83
2016-12-19T05:09:27.983Z,19.84
2016-12-19T05:10:37.270Z,19.92
2016-12-19T05:11:45.963Z,19.91
2016-12-19T05:12:54.956Z,19.94
2016-12-19T05:14:03.656Z,19.83
2016-12-19T05:15:12.981Z,19.83
2016-12-19T05:16:21.700Z,19.84
2016-12-19T05:17:31.000Z,19.94
2016-12-19T05:18:40.334Z,19.83
2016-12-19T05:19:49.020Z,19.87
2016-12-19T05:20:58.023Z,19.84
2016-12-19T05:22:07.348Z,19.87
2016-12-19T05:23:16.345Z,19.87
2016-12-19T05:24:25.031Z,19.81
2016-12-19T05:25:34.027Z,19.92
2016-12-19T05:26:42.709Z,19.92
2016-12-19T05:27:52.317Z,19.88
2016-12-19T05:29:01.315Z,19.84
2016-12-19T05:30:11.238Z,19.88
2016-12-19T05:31:20.540Z,19.87
2016-12-19T05:32:29.536Z,19.92
2016-12-19T05:33:38.529Z,19.95
2016-12-19T05:34:47.519Z,19.96
2016-12-19T05:35:56.208Z,19.86
2016-12-19T05:37:05.215Z,19.98
2016-12-19T05:38:14.271Z,19.99
2016-12-19T05:39:23.576Z,19.99
2016-12-19T05:40:32.265Z,20.08
2016-12-19T05:41:41.257Z,20.08
2016-12-19T05:42:50.257Z,20.24
2016-12-19T05:43:59.357Z,20.2
2016-12-19T05:45:08.051Z,20.24
2016-12-19T05:46:16.745Z,20.36
2016-12-19T05:47:25.440Z,20.39
2016-12-19T05:48:35.045Z,20.41
2016-12-19T05:49:44.041Z,20.39
2016-12-19T05:50:53.041Z,20.5
2016-12-19T05:52:02.037Z,20.64
2016-12-19T05:53:11.040Z,20.66
2016-12-19T05:54:20.052Z,20.7
2016-12-19T05:55:28.882Z,20.69
2016-12-19T05:56:38.182Z,20.77
2016-12-19T05:57:47.174Z,20.79
2016-12-19T05:58:56.477Z,20.84
2016-12-19T06:00:05.791Z,20.92
2016-12-19T06:01:14.938Z,20.95
2016-12-19T06:02:24.238Z,21.03
2016-12-19T06:03:33.243Z,21.03
2016-12-19T06:04:41.993Z,21.06
2016-12-19T06:05:51.294Z,21.12
2016-12-19T06:07:00.604Z,21.14
2016-12-19T06:08:09.913Z,21.25
2016-12-19T06:09:18.930Z,21.32
2016-12-19T06:10:28.539Z,21.25
2016-12-19T06:11:37.551Z,21.34
2016-12-19T06:12:47.210Z,21.34
2016-12-19T06:13:56.216Z,21.47
2016-12-19T06:15:05.222Z,21.37
2016-12-19T06:16:13.937Z,21.47
2016-12-19T06:17:22.946Z,21.58
2016-12-19T06:18:32.113Z,21.54
2016-12-19T06:19:41.435Z,21.61
2016-12-19T06:20:50.458Z,21.67
2016-12-19T06:21:59.523Z,21.74
2016-12-19T06:23:08.541Z,21.74
2016-12-19T06:24:18.177Z,21.88
2016-12-19T06:25:26.873Z,21.8
2016-12-19T06:26:35.887Z,21.91
2016-12-19T06:27:44.902Z,21.91
2016-12-19T06:28:53.603Z,22.02
2016-12-19T06:30:02.665Z,22.03
2016-12-19T06:31:11.679Z,22.02
2016-12-19T06:32:20.677Z,22.12
2016-12-19T06:33:29.729Z,22.17
2016-12-19T06:34:38.730Z,22.21
2016-12-19T06:35:47.731Z,22.18
2016-12-19T06:36:56.729Z,22.25
2016-12-19T06:38:05.423Z,22.3
2016-12-19T06:39:14.422Z,22.36
2016-12-19T06:40:24.036Z,22.37
2016-12-19T06:41:32.732Z,22.36
2016-12-19T06:42:41.447Z,22.36
2016-12-19T06:43:50.149Z,22.39
2016-12-19T06:44:59.775Z,22.45
2016-12-19T06:46:09.404Z,22.49
2016-12-19T06:47:18.105Z,22.52
2016-12-19T06:48:27.117Z,22.64
2016-12-19T06:49:35.808Z,22.58
2016-12-19T06:50:44.550Z,22.58
2016-12-19T06:51:53.255Z,22.61
2016-12-19T06:53:02.306Z,22.51
2016-12-19T06:54:11.332Z,22.47
2016-12-19T06:55:20.340Z,22.22
2016-12-19T06:56:29.336Z,21.98
2016-12-19T06:57:38.643Z,21.67
2016-12-19T06:58:47.830Z,21.37
2016-12-19T06:59:56.846Z,21.16
2016-12-19T07:01:05.882Z,20.8
2016-12-19T07:02:14.578Z,20.67
2016-12-19T07:03:23.262Z,20.64
2016-12-19T07:04:32.274Z,20.55
2016-12-19T07:05:41.325Z,20.47
2016-12-19T07:06:50.344Z,20.43
2016-12-19T07:07:59.032Z,20.54
2016-12-19T07:09:08.037Z,20.57
2016-12-19T07:10:17.025Z,20.62
2016-12-19T07:11:26.024Z,20.66
2016-12-19T07:12:34.715Z,20.7
2016-12-19T07:13:43.418Z,20.66
2016-12-19T07:14:52.413Z,20.66
2016-12-19T07:16:01.769Z,20.64
2016-12-19T07:17:10.758Z,20.74
2016-12-19T07:18:19.769Z,20.79
2016-12-19T07:19:28.766Z,20.8
2016-12-19T07:20:38.071Z,20.8
2016-12-19T07:21:47.177Z,20.88
2016-12-19T07:22:55.868Z,20.82
2016-12-19T07:24:04.862Z,20.84
2016-12-19T07:25:13.864Z,20.85
2016-12-19T07:26:23.222Z,20.89
2016-12-19T07:27:33.588Z,20.97
2016-12-19T07:28:42.589Z,20.98
2016-12-19T07:29:51.588Z,20.92
2016-12-19T07:31:00.589Z,20.94
2016-12-19T07:32:09.887Z,21.01
2016-12-19T07:33:18.741Z,20.97
2016-12-19T07:34:28.053Z,20.98
2016-12-19T07:35:37.368Z,20.99
2016-12-19T07:36:46.371Z,20.98
2016-12-19T07:37:55.059Z,20.99
2016-12-19T07:39:04.067Z,20.94
2016-12-19T07:40:13.067Z,20.99
2016-12-19T07:41:21.765Z,20.97
2016-12-19T07:42:30.784Z,20.98
2016-12-19T07:43:39.478Z,21.01
2016-12-19T07:44:48.169Z,20.95
2016-12-19T07:45:56.862Z,20.95
2016-12-19T07:47:05.857Z,21.03
2016-12-19T07:48:14.858Z,20.97
2016-12-19T07:49:24.154Z,20.92
2016-12-19T07:50:34.203Z,20.97
2016-12-19T07:51:43.201Z,20.95
2016-12-19T07:52:52.207Z,20.95
2016-12-19T07:54:01.512Z,20.97
2016-12-19T07:55:10.514Z,20.97
2016-12-19T07:56:19.631Z,20.99
2016-12-19T07:57:28.964Z,20.91
2016-12-19T07:58:38.287Z,20.91
2016-12-19T07:59:47.290Z,20.91
2016-12-19T08:00:56.302Z,20.94
2016-12-19T08:02:05.610Z,20.89
2016-12-19T08:03:14.300Z,20.95
2016-12-19T08:04:23.303Z,20.82
2016-12-19T08:05:32.937Z,20.87
2016-12-19T08:06:42.256Z,20.85
2016-12-19T08:07:50.951Z,20.85
2016-12-19T08:08:59.664Z,20.87
2016-12-19T08:10:08.667Z,20.87
2016-12-19T08:11:17.372Z,20.82
2016-12-19T08:12:26.078Z,20.73
2016-12-19T08:13:35.086Z,20.82
2016-12-19T08:14:44.090Z,20.79
2016-12-19T08:15:53.092Z,20.76
2016-12-19T08:17:02.093Z,20.8
2016-12-19T08:18:11.093Z,20.79
2016-12-19T08:19:20.847Z,20.8
2016-12-19T08:20:29.897Z,20.8
2016-12-19T08:21:39.213Z,20.77
2016-12-19T08:22:47.900Z,20.76
2016-12-19T08:23:56.897Z,20.64
2016-12-19T08:25:05.685Z,20.74
2016-12-19T08:26:14.369Z,20.67
2016-12-19T08:27:23.667Z,20.69
2016-12-19T08:28:32.665Z,20.67
2016-12-19T08:29:41.453Z,20.66
2016-12-19T08:30:50.764Z,20.64
2016-12-19T08:31:59.782Z,20.69
2016-12-19T08:33:09.097Z,20.66
2016-12-19T08:34:17.821Z,20.69
2016-12-19T08:35:26.816Z,20.67
2016-12-19T08:36:36.267Z,20.76
2016-12-19T08:37:45.582Z,20.76
2016-12-19T08:38:55.211Z,20.66
2016-12-19T08:40:03.920Z,20.72
2016-12-19T08:41:13.144Z,20.67
2016-12-19T08:42:22.604Z,20.74
2016-12-19T08:43:32.221Z,20.74
2016-12-19T08:44:41.849Z,20.57
2016-12-19T08:45:50.866Z,20.69
2016-12-19T08:47:00.166Z,20.7
2016-12-19T08:48:09.016Z,20.7
2016-12-19T08:49:18.316Z,20.64
2016-12-19T08:50:27.313Z,20.69
2016-12-19T08:51:36.624Z,20.62
2016-12-19T08:52:45.934Z,20.64
2016-12-19T08:53:55.103Z,20.62
2016-12-19T08:55:03.799Z,20.62
2016-12-19T08:56:12.807Z,20.61
2016-12-19T08:57:22.449Z,20.62
2016-12-19T08:58:31.441Z,20.64
2016-12-19T08:59:40.634Z,20.59
2016-12-19T09:00:49.631Z,20.66
2016-12-19T09:01:58.321Z,20.62
2016-12-19T09:03:08.236Z,20.67
2016-12-19T09:04:17.552Z,20.69
2016-12-19T09:05:27.216Z,20.61
2016-12-19T09:06:35.912Z,20.62
2016-12-19T09:07:44.617Z,20.66
2016-12-19T09:08:53.624Z,20.62
2016-12-19T09:10:02.928Z,20.55
2016-12-19T09:11:11.972Z,20.66
2016-12-19T09:12:20.680Z,20.52
2016-12-19T09:13:49.192Z,20.7
2016-12-19T09:14:58.499Z,20.62
2016-12-19T09:16:07.807Z,20.66
2016-12-19T09:17:16.811Z,20.64
2016-12-19T09:18:26.134Z,20.67
2016-12-19T09:19:35.128Z,20.67
2016-12-19T09:20:44.426Z,20.64
2016-12-19T09:21:53.416Z,20.59
2016-12-19T09:23:02.727Z,20.66
2016-12-19T09:24:11.727Z,20.57
2016-12-19T09:25:20.780Z,20.59
2016-12-19T09:26:29.465Z,20.54
2016-12-19T09:27:38.475Z,20.55
2016-12-19T09:28:47.164Z,20.58
2016-12-19T09:29:56.200Z,20.61
2016-12-19T09:31:04.903Z,20.58
2016-12-19T09:32:13.905Z,20.54
2016-12-19T09:33:22.906Z,20.54
2016-12-19T09:34:31.901Z,20.47
2016-12-19T09:35:40.886Z,20.54
2016-12-19T09:36:49.877Z,20.42
2016-12-19T09:37:58.558Z,20.52
2016-12-19T09:39:07.859Z,20.47
2016-12-19T09:40:17.159Z,20.51
2016-12-19T09:41:26.153Z,20.42
2016-12-19T09:42:35.483Z,20.57
2016-12-19T09:43:44.483Z,20.54
2016-12-19T09:44:53.487Z,20.54
2016-12-19T09:46:02.188Z,20.51
2016-12-19T09:47:11.176Z,20.57
2016-12-19T09:48:20.196Z,20.52
2016-12-19T09:49:29.197Z,20.5
2016-12-19T09:50:37.893Z,20.51
2016-12-19T09:51:47.194Z,20.43
2016-12-19T09:52:56.193Z,20.52
2016-12-19T09:54:05.807Z,20.51
2016-12-19T09:55:14.813Z,20.54
2016-12-19T09:56:24.119Z,20.57
2016-12-19T09:57:33.125Z,20.47
2016-12-19T09:58:41.889Z,20.54
2016-12-19T09:59:50.581Z,20.54
2016-12-19T10:00:59.587Z,20.55
2016-12-19T10:02:08.882Z,20.48
2016-12-19T10:03:17.882Z,20.55
2016-12-19T10:04:27.186Z,20.42
2016-12-19T10:05:36.190Z,20.51
2016-12-19T10:06:45.186Z,20.41
2016-12-19T10:07:54.188Z,20.5
2016-12-19T10:09:03.811Z,20.52
2016-12-19T10:10:13.130Z,20.43
2016-12-19T10:11:22.143Z,20.43
2016-12-19T10:12:31.133Z,20.41
2016-12-19T10:13:39.825Z,20.47
2016-12-19T10:14:48.823Z,20.43
2016-12-19T10:15:57.837Z,20.43
2016-12-19T10:17:06.527Z,20.43
2016-12-19T10:18:15.527Z,20.42
2016-12-19T10:19:24.547Z,20.41
2016-12-19T10:20:33.547Z,20.41
2016-12-19T10:21:42.239Z,20.41
2016-12-19T10:22:51.229Z,20.43
2016-12-19T10:24:00.534Z,20.41
2016-12-19T10:25:09.841Z,20.39
2016-12-19T10:26:18.528Z,20.47
2016-12-19T10:27:27.874Z,20.38
2016-12-19T10:28:37.182Z,20.42
2016-12-19T10:29:45.878Z,20.42
2016-12-19T10:30:55.899Z,20.41
2016-12-19T10:32:05.510Z,20.39
2016-12-19T10:33:14.513Z,20.47
2016-12-19T10:34:23.504Z,20.39
2016-12-19T10:35:33.111Z,20.43
2016-12-19T10:36:42.113Z,20.42
2016-12-19T10:37:51.106Z,20.41
2016-12-19T10:39:00.432Z,20.38
2016-12-19T10:40:09.122Z,20.42
2016-12-19T10:41:18.422Z,20.38
2016-12-19T10:42:27.427Z,20.29
2016-12-19T10:43:36.122Z,20.42
2016-12-19T10:44:45.434Z,20.36
2016-12-19T10:45:54.126Z,20.42
2016-12-19T10:47:03.124Z,20.36
2016-12-19T10:48:12.424Z,20.41
2016-12-19T10:49:21.426Z,20.41
2016-12-19T10:50:30.741Z,20.29
2016-12-19T10:51:39.740Z,20.38
2016-12-19T10:52:48.727Z,20.42
2016-12-19T10:53:58.236Z,20.42
2016-12-19T10:55:06.923Z,20.38
2016-12-19T10:56:15.597Z,20.35
2016-12-19T10:57:24.281Z,20.38
2016-12-19T10:58:33.579Z,20.35
2016-12-19T10:59:42.877Z,20.42
2016-12-19T11:00:52.191Z,20.32
2016-12-19T11:02:01.181Z,20.42
2016-12-19T11:03:10.190Z,20.39
2016-12-19T11:04:19.497Z,20.36
2016-12-19T11:05:28.489Z,20.38
2016-12-19T11:06:37.476Z,20.33
2016-12-19T11:07:46.467Z,20.41
2016-12-19T11:08:55.463Z,20.36
2016-12-19T11:10:04.787Z,20.35
2016-12-19T11:11:13.480Z,20.38
2016-12-19T11:12:22.477Z,20.36
2016-12-19T11:13:31.169Z,20.36
2016-12-19T11:14:40.781Z,20.41
2016-12-19T11:15:49.477Z,20.41
2016-12-19T11:16:58.782Z,20.41
2016-12-19T11:18:08.083Z,20.36
2016-12-19T11:19:17.690Z,20.41
2016-12-19T11:20:26.374Z,20.39
2016-12-19T11:21:35.681Z,20.41
2016-12-19T11:22:44.367Z,20.36
2016-12-19T11:23:53.380Z,20.33
2016-12-19T11:25:02.071Z,20.41
2016-12-19T11:26:10.867Z,20.39
2016-12-19T11:27:20.266Z,20.42
2016-12-19T11:28:28.983Z,20.43
2016-12-19T11:29:37.971Z,20.43
2016-12-19T11:30:46.962Z,20.41
2016-12-19T11:31:56.259Z,20.39
2016-12-19T11:33:04.942Z,20.47
2016-12-19T11:34:13.931Z,20.43
2016-12-19T11:35:22.936Z,20.43
2016-12-19T11:36:31.632Z,20.41
2016-12-19T11:37:40.333Z,20.42
2016-12-19T11:38:49.019Z,20.43
2016-12-19T11:39:58.328Z,20.41
2016-12-19T11:41:07.933Z,20.48
2016-12-19T11:42:16.627Z,20.47
2016-12-19T11:43:25.319Z,20.48
2016-12-19T11:44:34.621Z,20.5
2016-12-19T11:45:43.961Z,20.41
2016-12-19T11:46:52.970Z,20.41
2016-12-19T11:48:02.297Z,20.43
2016-12-19T11:49:11.600Z,20.52
2016-12-19T11:50:20.296Z,20.48
2016-12-19T11:51:29.305Z,20.42
2016-12-19T11:52:38.300Z,20.39
2016-12-19T11:53:47.318Z,20.36
2016-12-19T11:54:56.618Z,20.35
2016-12-19T11:56:05.607Z,20.42
2016-12-19T11:57:14.998Z,20.33
2016-12-19T11:58:23.990Z,20.41
2016-12-19T11:59:32.980Z,20.35
2016-12-19T12:00:41.979Z,20.38
2016-12-19T12:01:51.268Z,20.33
2016-12-19T12:03:00.296Z,20.33
2016-12-19T12:04:08.968Z,20.32
2016-12-19T12:05:17.990Z,20.33
2016-12-19T12:06:26.678Z,20.38
2016-12-19T12:07:35.687Z,20.31
2016-12-19T12:08:44.679Z,20.36
2016-12-19T12:09:53.673Z,20.32
2016-12-19T12:11:02.676Z,20.39
2016-12-19T12:12:11.668Z,20.38
2016-12-19T12:13:20.357Z,20.35
2016-12-19T12:14:29.049Z,20.33
2016-12-19T12:15:38.347Z,20.36
2016-12-19T12:16:47.081Z,20.35
2016-12-19T12:17:55.774Z,20.47
2016-12-19T12:19:04.479Z,20.41
2016-12-19T12:20:14.116Z,20.36
2016-12-19T12:21:23.432Z,20.36
2016-12-19T12:22:32.158Z,20.36
2016-12-19T12:23:40.843Z,20.35
2016-12-19T12:24:49.883Z,20.38
2016-12-19T12:25:58.902Z,20.38
2016-12-19T12:27:07.894Z,20.38
2016-12-19T12:28:17.190Z,20.35
2016-12-19T12:29:26.173Z,20.41
2016-12-19T12:30:35.169Z,20.32
2016-12-19T12:31:43.863Z,20.36
2016-12-19T12:32:52.542Z,20.32
2016-12-19T12:34:01.528Z,20.36
2016-12-19T12:35:11.133Z,20.41
2016-12-19T12:36:19.821Z,20.41
2016-12-19T12:37:29.142Z,20.29
2016-12-19T12:38:37.815Z,20.39
2016-12-19T12:39:47.419Z,20.32
2016-12-19T12:40:56.111Z,20.41
2016-12-19T12:42:04.806Z,20.38
2016-12-19T12:43:14.112Z,20.41
2016-12-19T12:44:23.103Z,20.41
2016-12-19T12:45:32.702Z,20.42
2016-12-19T12:46:41.999Z,20.33
2016-12-19T12:47:51.299Z,20.36
2016-12-19T12:49:00.332Z,20.36
2016-12-19T12:50:09.622Z,20.43
2016-12-19T12:51:18.625Z,20.42
2016-12-19T12:52:27.311Z,20.41
2016-12-19T12:53:36.306Z,20.39
2016-12-19T12:54:45.900Z,20.43
2016-12-19T12:55:54.896Z,20.47
2016-12-19T12:57:03.925Z,20.47
2016-12-19T12:58:13.229Z,20.47
2016-12-19T12:59:21.911Z,20.39
2016-12-19T13:00:30.906Z,20.41
2016-12-19T13:01:39.905Z,20.38
2016-12-19T13:02:48.594Z,20.38
2016-12-19T13:03:57.586Z,20.33
2016-12-19T13:05:06.582Z,20.42
2016-12-19T13:06:15.583Z,20.39
2016-12-19T13:07:24.569Z,20.41
2016-12-19T13:08:34.171Z,20.42
2016-12-19T13:09:43.477Z,20.43
2016-12-19T13:10:52.783Z,20.47
2016-12-19T13:12:01.476Z,20.39
2016-12-19T13:13:10.502Z,20.42
2016-12-19T13:14:19.806Z,20.38
2016-12-19T13:15:28.797Z,20.39
2016-12-19T13:16:37.489Z,20.33
2016-12-19T13:17:46.481Z,20.35
2016-12-19T13:18:55.777Z,20.43
2016-12-19T13:20:05.077Z,20.38
2016-12-19T13:21:13.757Z,20.36
2016-12-19T13:22:22.745Z,20.43
2016-12-19T13:23:31.434Z,20.35
2016-12-19T13:24:40.125Z,20.42
2016-12-19T13:25:48.819Z,20.38
2016-12-19T13:26:58.717Z,20.41
2016-12-19T13:28:08.014Z,20.38
2016-12-19T13:29:17.019Z,20.36
2016-12-19T13:30:26.318Z,20.29
2016-12-19T13:31:35.628Z,20.41
2016-12-19T13:32:44.934Z,20.35
2016-12-19T13:33:54.540Z,20.41
2016-12-19T13:35:03.235Z,20.35
2016-12-19T13:36:11.929Z,20.29
2016-12-19T13:37:20.921Z,20.39
2016-12-19T13:38:30.523Z,20.35
2016-12-19T13:39:39.514Z,20.35
2016-12-19T13:40:48.511Z,20.32
2016-12-19T13:41:57.188Z,20.42
2016-12-19T13:43:05.900Z,20.36
2016-12-19T13:44:14.898Z,20.35
2016-12-19T13:45:23.889Z,20.39
2016-12-19T13:46:34.779Z,20.32
2016-12-19T13:47:43.487Z,20.39
2016-12-19T13:48:52.470Z,20.28
2016-12-19T13:50:01.844Z,20.38
2016-12-19T13:51:10.828Z,20.33
2016-12-19T13:52:19.508Z,20.28
2016-12-19T13:53:28.198Z,20.38
2016-12-19T13:54:37.189Z,20.32
2016-12-19T13:55:46.193Z,20.39
2016-12-19T13:56:54.882Z,20.32
2016-12-19T13:58:04.489Z,20.31
2016-12-19T13:59:13.815Z,20.32
2016-12-19T14:00:23.113Z,20.26
2016-12-19T14:01:32.401Z,20.42
2016-12-19T14:02:41.082Z,20.31
2016-12-19T14:03:50.372Z,20.29
2016-12-19T14:04:59.065Z,20.31
2016-12-19T14:06:07.748Z,20.29
2016-12-19T14:07:17.380Z,20.28
2016-12-19T14:08:26.695Z,20.29
2016-12-19T14:09:35.393Z,20.28
2016-12-19T14:10:44.709Z,20.31
2016-12-19T14:11:53.703Z,20.31
2016-12-19T14:13:02.735Z,20.32
2016-12-19T14:14:12.028Z,20.21
2016-12-19T14:15:21.342Z,20.29
2016-12-19T14:16:30.631Z,20.33
2016-12-19T14:17:39.972Z,20.29
2016-12-19T14:18:48.963Z,20.17
2016-12-19T14:19:57.964Z,20.26
2016-12-19T14:21:06.654Z,20.17
2016-12-19T14:22:15.957Z,20.26
2016-12-19T14:23:24.949Z,20.17
2016-12-19T14:24:34.893Z,20.16
2016-12-19T14:25:43.905Z,20.21
2016-12-19T14:26:53.207Z,20.2
2016-12-19T14:28:02.521Z,20.17
2016-12-19T14:29:11.830Z,20.26
2016-12-19T14:30:21.440Z,20.2
2016-12-19T14:31:30.129Z,20.18
2016-12-19T14:32:38.824Z,20.17
2016-12-19T14:33:47.826Z,20.24
2016-12-19T14:34:56.820Z,20.2
2016-12-19T14:36:44.174Z,20.17
2016-12-19T14:37:52.887Z,20.11
2016-12-19T14:39:02.506Z,20.18
2016-12-19T14:40:11.192Z,20.23
2016-12-19T14:41:20.178Z,20.13
2016-12-19T14:42:29.486Z,20.13
2016-12-19T14:43:38.786Z,20.11
2016-12-19T14:44:48.082Z,20.18
2016-12-19T14:45:57.073Z,20.23
2016-12-19T14:47:05.787Z,20.06
2016-12-19T14:48:14.467Z,20.21
2016-12-19T14:49:23.765Z,20.17
2016-12-19T14:50:32.446Z,20.1
2016-12-19T14:51:41.448Z,20.14
2016-12-19T14:52:50.752Z,20.14